aviador You're here:

LQBK Decoded Metar

BANJA LUKA in BOSNIA-HERCEGOVINA
Report Time2017-11-20 22:30:00
UTC Time2017-11-20 22:57:23
Flight Rules vfr VFR
Wind200° at 08 kt
W.Decomp.*RWY 17: 7.0 kt HW 3.9 kt RCW
W.Rank200° ranks 19
Current wind is above 200° avg. (4.6)
Visibility9999 m
Phenomena:N/A
Clouds:N/A
Expected CloudBase > 2,400 ft AGL from Temp-Dew spread
CeilingNone
Temp04°C (ISA -10)
Dew Point-2°C (65% RH)
AAT-1.1°C
QNH1020 hPa
Density Alt-997 ft
Elevation400 ft
Report Wrong Elevation
Raw Report
METAR LQBK 202230Z 20008KT CAVOK 04/M02 Q1020 NOSIG=

Extra information for LQBK:More info

Metar Taf Metar & Taf Last 4 Metars F.Rules Stats Wind Profile Meteogram Temp Stats Airport Information Weather charts Add Link Nearby VenuesMetar ALERT Operation Metar Decoded Social comments